sensor_id;sensor_type;location;lat;lon;timestamp;P1;durP1;ratioP1;P2;durP2;ratioP2
58384;SDS011;44185;47.844;8.966;2023-04-03T00:00:02;9.43;;;4.40;;
58384;SDS011;44185;47.844;8.966;2023-04-03T00:02:28;8.93;;;4.80;;
58384;SDS011;44185;47.844;8.966;2023-04-03T00:04:53;5.38;;;3.67;;
58384;SDS011;44185;47.844;8.966;2023-04-03T00:07:19;5.78;;;3.60;;
58384;SDS011;44185;47.844;8.966;2023-04-03T00:09:45;9.88;;;4.32;;
58384;SDS011;44185;47.844;8.966;2023-04-03T00:12:11;6.70;;;4.35;;
58384;SDS011;44185;47.844;8.966;2023-04-03T00:14:36;6.85;;;4.65;;
58384;SDS011;44185;47.844;8.966;2023-04-03T00:17:02;6.00;;;3.67;;
58384;SDS011;44185;47.844;8.966;2023-04-03T00:19:27;5.13;;;3.08;;
58384;SDS011;44185;47.844;8.966;2023-04-03T00:21:53;6.00;;;3.00;;
58384;SDS011;44185;47.844;8.966;2023-04-03T00:24:19;6.95;;;3.58;;
58384;SDS011;44185;47.844;8.966;2023-04-03T00:26:45;4.90;;;3.35;;
58384;SDS011;44185;47.844;8.966;2023-04-03T00:29:11;6.30;;;3.57;;
58384;SDS011;44185;47.844;8.966;2023-04-03T00:31:36;5.42;;;3.48;;
58384;SDS011;44185;47.844;8.966;2023-04-03T00:34:02;6.53;;;3.67;;
58384;SDS011;44185;47.844;8.966;2023-04-03T00:36:27;4.95;;;3.85;;
58384;SDS011;44185;47.844;8.966;2023-04-03T00:38:53;5.65;;;3.22;;
58384;SDS011;44185;47.844;8.966;2023-04-03T00:41:19;5.47;;;3.10;;
58384;SDS011;44185;47.844;8.966;2023-04-03T00:43:45;5.43;;;3.70;;
58384;SDS011;44185;47.844;8.966;2023-04-03T00:46:11;5.30;;;3.22;;
58384;SDS011;44185;47.844;8.966;2023-04-03T00:48:37;5.98;;;4.02;;
58384;SDS011;44185;47.844;8.966;2023-04-03T00:51:07;4.72;;;3.50;;
58384;SDS011;44185;47.844;8.966;2023-04-03T00:53:37;6.00;;;3.63;;
58384;SDS011;44185;47.844;8.966;2023-04-03T00:56:05;4.80;;;3.10;;
58384;SDS011;44185;47.844;8.966;2023-04-03T00:58:33;8.57;;;4.13;;
58384;SDS011;44185;47.844;8.966;2023-04-03T01:01:05;7.90;;;3.67;;
58384;SDS011;44185;47.844;8.966;2023-04-03T01:03:33;7.20;;;3.85;;
58384;SDS011;44185;47.844;8.966;2023-04-03T01:05:59;4.30;;;3.42;;
58384;SDS011;44185;47.844;8.966;2023-04-03T01:08:24;6.28;;;3.92;;
58384;SDS011;44185;47.844;8.966;2023-04-03T01:10:50;6.50;;;4.28;;
58384;SDS011;44185;47.844;8.966;2023-04-03T01:13:20;7.13;;;3.95;;
58384;SDS011;44185;47.844;8.966;2023-04-03T01:15:47;5.97;;;3.80;;
58384;SDS011;44185;47.844;8.966;2023-04-03T01:18:14;6.80;;;4.72;;
58384;SDS011;44185;47.844;8.966;2023-04-03T01:20:47;7.43;;;3.90;;
58384;SDS011;44185;47.844;8.966;2023-04-03T01:23:30;6.95;;;4.20;;
58384;SDS011;44185;47.844;8.966;2023-04-03T01:26:01;8.50;;;5.55;;
58384;SDS011;44185;47.844;8.966;2023-04-03T01:28:31;7.97;;;4.63;;
58384;SDS011;44185;47.844;8.966;2023-04-03T01:31:00;9.40;;;4.72;;
58384;SDS011;44185;47.844;8.966;2023-04-03T01:33:34;8.20;;;4.35;;
58384;SDS011;44185;47.844;8.966;2023-04-03T01:36:00;5.32;;;3.70;;
58384;SDS011;44185;47.844;8.966;2023-04-03T01:38:25;7.10;;;4.55;;
58384;SDS011;44185;47.844;8.966;2023-04-03T01:40:51;8.07;;;4.78;;
58384;SDS011;44185;47.844;8.966;2023-04-03T01:43:16;7.45;;;4.43;;
58384;SDS011;44185;47.844;8.966;2023-04-03T01:45:42;7.45;;;4.55;;
58384;SDS011;44185;47.844;8.966;2023-04-03T01:48:07;6.98;;;3.80;;
58384;SDS011;44185;47.844;8.966;2023-04-03T01:50:34;6.30;;;3.92;;
58384;SDS011;44185;47.844;8.966;2023-04-03T01:52:59;5.57;;;3.83;;
58384;SDS011;44185;47.844;8.966;2023-04-03T01:55:25;6.10;;;4.38;;
58384;SDS011;44185;47.844;8.966;2023-04-03T01:57:50;7.93;;;4.18;;
58384;SDS011;44185;47.844;8.966;2023-04-03T02:00:16;6.05;;;4.40;;
58384;SDS011;44185;47.844;8.966;2023-04-03T02:02:41;8.63;;;5.03;;
58384;SDS011;44185;47.844;8.966;2023-04-03T02:05:07;8.20;;;4.20;;
58384;SDS011;44185;47.844;8.966;2023-04-03T02:07:34;8.88;;;4.50;;
58384;SDS011;44185;47.844;8.966;2023-04-03T02:10:00;7.30;;;4.20;;
58384;SDS011;44185;47.844;8.966;2023-04-03T02:12:25;6.38;;;4.75;;
58384;SDS011;44185;47.844;8.966;2023-04-03T02:14:51;5.50;;;3.53;;
58384;SDS011;44185;47.844;8.966;2023-04-03T02:17:16;7.75;;;4.22;;
58384;SDS011;44185;47.844;8.966;2023-04-03T02:19:42;6.75;;;4.25;;
58384;SDS011;44185;47.844;8.966;2023-04-03T02:22:07;7.93;;;4.00;;
58384;SDS011;44185;47.844;8.966;2023-04-03T02:24:34;7.32;;;4.25;;
58384;SDS011;44185;47.844;8.966;2023-04-03T02:26:59;7.97;;;4.43;;
58384;SDS011;44185;47.844;8.966;2023-04-03T02:29:25;6.13;;;3.53;;
58384;SDS011;44185;47.844;8.966;2023-04-03T02:31:51;5.47;;;3.53;;
58384;SDS011;44185;47.844;8.966;2023-04-03T02:34:16;8.77;;;4.60;;
58384;SDS011;44185;47.844;8.966;2023-04-03T02:36:42;10.93;;;5.15;;
58384;SDS011;44185;47.844;8.966;2023-04-03T02:39:07;10.35;;;4.28;;
58384;SDS011;44185;47.844;8.966;2023-04-03T02:41:34;8.30;;;4.95;;
58384;SDS011;44185;47.844;8.966;2023-04-03T02:44:00;5.88;;;3.58;;
58384;SDS011;44185;47.844;8.966;2023-04-03T02:46:25;10.23;;;5.32;;
58384;SDS011;44185;47.844;8.966;2023-04-03T02:48:50;7.80;;;4.57;;
58384;SDS011;44185;47.844;8.966;2023-04-03T02:51:16;11.32;;;5.13;;
58384;SDS011;44185;47.844;8.966;2023-04-03T02:53:41;11.32;;;5.00;;
58384;SDS011;44185;47.844;8.966;2023-04-03T02:56:07;7.07;;;3.45;;
58384;SDS011;44185;47.844;8.966;2023-04-03T02:58:34;7.03;;;3.95;;
58384;SDS011;44185;47.844;8.966;2023-04-03T03:00:59;10.50;;;5.10;;
58384;SDS011;44185;47.844;8.966;2023-04-03T03:03:24;7.95;;;4.15;;
58384;SDS011;44185;47.844;8.966;2023-04-03T03:05:50;7.18;;;3.78;;
58384;SDS011;44185;47.844;8.966;2023-04-03T03:08:25;6.95;;;4.47;;
58384;SDS011;44185;47.844;8.966;2023-04-03T03:10:50;9.95;;;4.78;;
58384;SDS011;44185;47.844;8.966;2023-04-03T03:13:16;10.40;;;4.70;;
58384;SDS011;44185;47.844;8.966;2023-04-03T03:15:42;9.80;;;5.20;;
58384;SDS011;44185;47.844;8.966;2023-04-03T03:18:08;8.38;;;4.20;;
58384;SDS011;44185;47.844;8.966;2023-04-03T03:20:34;10.02;;;5.00;;
58384;SDS011;44185;47.844;8.966;2023-04-03T03:22:59;9.93;;;4.90;;
58384;SDS011;44185;47.844;8.966;2023-04-03T03:25:24;6.72;;;3.75;;
58384;SDS011;44185;47.844;8.966;2023-04-03T03:27:50;9.23;;;4.65;;
58384;SDS011;44185;47.844;8.966;2023-04-03T03:30:15;8.06;;;4.78;;
58384;SDS011;44185;47.844;8.966;2023-04-03T03:32:42;7.70;;;4.22;;
58384;SDS011;44185;47.844;8.966;2023-04-03T03:35:08;7.47;;;4.43;;
58384;SDS011;44185;47.844;8.966;2023-04-03T03:37:34;8.25;;;4.25;;
58384;SDS011;44185;47.844;8.966;2023-04-03T03:39:59;9.27;;;3.47;;
58384;SDS011;44185;47.844;8.966;2023-04-03T03:42:24;7.43;;;4.00;;
58384;SDS011;44185;47.844;8.966;2023-04-03T03:44:50;6.35;;;4.05;;
58384;SDS011;44185;47.844;8.966;2023-04-03T03:47:15;6.35;;;3.90;;
58384;SDS011;44185;47.844;8.966;2023-04-03T03:49:42;6.78;;;4.20;;
58384;SDS011;44185;47.844;8.966;2023-04-03T03:52:08;7.50;;;3.63;;
58384;SDS011;44185;47.844;8.966;2023-04-03T03:54:34;8.40;;;3.88;;
58384;SDS011;44185;47.844;8.966;2023-04-03T03:56:59;9.70;;;5.00;;
58384;SDS011;44185;47.844;8.966;2023-04-03T03:59:24;6.38;;;3.33;;
58384;SDS011;44185;47.844;8.966;2023-04-03T04:01:50;5.60;;;3.72;;
58384;SDS011;44185;47.844;8.966;2023-04-03T04:04:15;7.22;;;3.70;;
58384;SDS011;44185;47.844;8.966;2023-04-03T04:06:42;4.90;;;3.50;;
58384;SDS011;44185;47.844;8.966;2023-04-03T04:09:08;6.72;;;3.97;;
58384;SDS011;44185;47.844;8.966;2023-04-03T04:11:34;6.00;;;3.53;;
58384;SDS011;44185;47.844;8.966;2023-04-03T04:13:59;6.25;;;3.70;;
58384;SDS011;44185;47.844;8.966;2023-04-03T04:16:25;7.10;;;4.15;;
58384;SDS011;44185;47.844;8.966;2023-04-03T04:18:50;9.25;;;4.30;;
58384;SDS011;44185;47.844;8.966;2023-04-03T04:21:15;7.75;;;3.72;;
58384;SDS011;44185;47.844;8.966;2023-04-03T04:23:42;3.15;;;2.50;;
58384;SDS011;44185;47.844;8.966;2023-04-03T04:26:08;5.45;;;3.25;;
58384;SDS011;44185;47.844;8.966;2023-04-03T04:28:34;5.40;;;3.38;;
58384;SDS011;44185;47.844;8.966;2023-04-03T04:30:59;5.60;;;2.90;;
58384;SDS011;44185;47.844;8.966;2023-04-03T04:33:24;5.32;;;3.65;;
58384;SDS011;44185;47.844;8.966;2023-04-03T04:35:50;6.18;;;3.70;;
58384;SDS011;44185;47.844;8.966;2023-04-03T04:38:15;4.28;;;2.90;;
58384;SDS011;44185;47.844;8.966;2023-04-03T04:40:42;3.95;;;2.70;;
58384;SDS011;44185;47.844;8.966;2023-04-03T04:43:08;6.90;;;3.00;;
58384;SDS011;44185;47.844;8.966;2023-04-03T04:45:34;3.00;;;2.17;;
58384;SDS011;44185;47.844;8.966;2023-04-03T04:47:59;3.42;;;2.67;;
58384;SDS011;44185;47.844;8.966;2023-04-03T04:50:24;4.97;;;3.05;;
58384;SDS011;44185;47.844;8.966;2023-04-03T04:52:50;4.88;;;2.80;;
58384;SDS011;44185;47.844;8.966;2023-04-03T04:55:15;3.45;;;2.58;;
58384;SDS011;44185;47.844;8.966;2023-04-03T04:57:42;3.90;;;3.00;;
58384;SDS011;44185;47.844;8.966;2023-04-03T05:00:09;5.20;;;3.28;;
58384;SDS011;44185;47.844;8.966;2023-04-03T05:02:35;5.93;;;3.33;;
58384;SDS011;44185;47.844;8.966;2023-04-03T05:05:00;5.10;;;2.72;;
58384;SDS011;44185;47.844;8.966;2023-04-03T05:07:26;4.82;;;2.80;;
58384;SDS011;44185;47.844;8.966;2023-04-03T05:09:51;3.97;;;2.75;;
58384;SDS011;44185;47.844;8.966;2023-04-03T05:12:17;4.40;;;2.55;;
58384;SDS011;44185;47.844;8.966;2023-04-03T05:14:43;4.35;;;3.17;;
58384;SDS011;44185;47.844;8.966;2023-04-03T05:17:09;4.30;;;3.10;;
58384;SDS011;44185;47.844;8.966;2023-04-03T05:19:34;5.07;;;3.35;;
58384;SDS011;44185;47.844;8.966;2023-04-03T05:22:00;5.05;;;2.60;;
58384;SDS011;44185;47.844;8.966;2023-04-03T05:24:25;4.40;;;3.00;;
58384;SDS011;44185;47.844;8.966;2023-04-03T05:26:50;3.78;;;2.67;;
58384;SDS011;44185;47.844;8.966;2023-04-03T05:29:16;3.05;;;2.13;;
58384;SDS011;44185;47.844;8.966;2023-04-03T05:31:43;3.13;;;2.83;;
58384;SDS011;44185;47.844;8.966;2023-04-03T05:34:08;3.85;;;3.03;;
58384;SDS011;44185;47.844;8.966;2023-04-03T05:36:34;3.88;;;2.55;;
58384;SDS011;44185;47.844;8.966;2023-04-03T05:38:59;4.80;;;3.10;;
58384;SDS011;44185;47.844;8.966;2023-04-03T05:41:24;4.90;;;3.17;;
58384;SDS011;44185;47.844;8.966;2023-04-03T05:43:50;6.43;;;3.53;;
58384;SDS011;44185;47.844;8.966;2023-04-03T05:46:16;5.55;;;3.33;;
58384;SDS011;44185;47.844;8.966;2023-04-03T05:48:45;6.22;;;3.30;;
58384;SDS011;44185;47.844;8.966;2023-04-03T05:51:13;7.03;;;3.67;;
58384;SDS011;44185;47.844;8.966;2023-04-03T05:53:40;4.40;;;3.00;;
58384;SDS011;44185;47.844;8.966;2023-04-03T05:56:06;5.00;;;3.55;;
58384;SDS011;44185;47.844;8.966;2023-04-03T05:58:32;5.70;;;3.50;;
58384;SDS011;44185;47.844;8.966;2023-04-03T06:00:57;5.57;;;3.10;;
58384;SDS011;44185;47.844;8.966;2023-04-03T06:03:22;3.97;;;3.20;;
58384;SDS011;44185;47.844;8.966;2023-04-03T06:05:50;5.50;;;3.35;;
58384;SDS011;44185;47.844;8.966;2023-04-03T06:08:15;6.68;;;3.63;;
58384;SDS011;44185;47.844;8.966;2023-04-03T06:10:40;5.97;;;3.33;;
58384;SDS011;44185;47.844;8.966;2023-04-03T06:13:06;4.55;;;2.78;;
58384;SDS011;44185;47.844;8.966;2023-04-03T06:15:31;3.97;;;3.22;;
58384;SDS011;44185;47.844;8.966;2023-04-03T06:17:57;3.95;;;3.05;;
58384;SDS011;44185;47.844;8.966;2023-04-03T06:20:23;5.72;;;3.60;;
58384;SDS011;44185;47.844;8.966;2023-04-03T06:22:50;4.28;;;2.90;;
58384;SDS011;44185;47.844;8.966;2023-04-03T06:25:15;4.82;;;3.20;;
58384;SDS011;44185;47.844;8.966;2023-04-03T06:27:41;5.03;;;3.10;;
58384;SDS011;44185;47.844;8.966;2023-04-03T06:30:12;6.40;;;3.70;;
58384;SDS011;44185;47.844;8.966;2023-04-03T06:32:38;5.47;;;3.42;;
58384;SDS011;44185;47.844;8.966;2023-04-03T06:35:04;5.40;;;3.55;;
58384;SDS011;44185;47.844;8.966;2023-04-03T06:37:30;7.63;;;3.22;;
58384;SDS011;44185;47.844;8.966;2023-04-03T06:39:57;3.72;;;2.55;;
58384;SDS011;44185;47.844;8.966;2023-04-03T06:42:23;4.78;;;2.90;;
58384;SDS011;44185;47.844;8.966;2023-04-03T06:44:49;4.82;;;3.40;;
58384;SDS011;44185;47.844;8.966;2023-04-03T06:47:14;6.45;;;2.97;;
58384;SDS011;44185;47.844;8.966;2023-04-03T06:49:41;6.18;;;3.30;;
58384;SDS011;44185;47.844;8.966;2023-04-03T06:52:07;6.03;;;3.33;;
58384;SDS011;44185;47.844;8.966;2023-04-03T06:54:33;4.35;;;2.95;;
58384;SDS011;44185;47.844;8.966;2023-04-03T06:57:00;4.35;;;3.20;;
58384;SDS011;44185;47.844;8.966;2023-04-03T06:59:25;5.60;;;3.80;;
58384;SDS011;44185;47.844;8.966;2023-04-03T07:01:51;4.75;;;3.20;;
58384;SDS011;44185;47.844;8.966;2023-04-03T07:04:16;6.38;;;3.55;;
58384;SDS011;44185;47.844;8.966;2023-04-03T07:06:42;6.57;;;3.45;;
58384;SDS011;44185;47.844;8.966;2023-04-03T07:09:07;6.22;;;2.83;;
58384;SDS011;44185;47.844;8.966;2023-04-03T07:11:33;5.63;;;3.10;;
58384;SDS011;44185;47.844;8.966;2023-04-03T07:14:00;4.35;;;3.00;;
58384;SDS011;44185;47.844;8.966;2023-04-03T07:16:26;6.43;;;3.38;;
58384;SDS011;44185;47.844;8.966;2023-04-03T07:18:51;6.57;;;3.20;;
58384;SDS011;44185;47.844;8.966;2023-04-03T07:21:17;2.95;;;2.50;;
58384;SDS011;44185;47.844;8.966;2023-04-03T07:23:42;2.58;;;2.33;;
58384;SDS011;44185;47.844;8.966;2023-04-03T07:26:08;3.17;;;2.30;;
58384;SDS011;44185;47.844;8.966;2023-04-03T07:28:34;4.18;;;2.05;;
58384;SDS011;44185;47.844;8.966;2023-04-03T07:31:02;3.53;;;2.53;;
58384;SDS011;44185;47.844;8.966;2023-04-03T07:33:29;3.90;;;2.73;;
58384;SDS011;44185;47.844;8.966;2023-04-03T07:35:54;3.15;;;2.50;;
58384;SDS011;44185;47.844;8.966;2023-04-03T07:38:20;2.55;;;1.88;;
58384;SDS011;44185;47.844;8.966;2023-04-03T07:40:46;3.95;;;2.20;;
58384;SDS011;44185;47.844;8.966;2023-04-03T07:43:12;3.83;;;2.60;;
58384;SDS011;44185;47.844;8.966;2023-04-03T07:45:38;3.80;;;2.33;;
58384;SDS011;44185;47.844;8.966;2023-04-03T07:48:05;4.40;;;2.97;;
58384;SDS011;44185;47.844;8.966;2023-04-03T07:50:31;4.43;;;2.70;;
58384;SDS011;44185;47.844;8.966;2023-04-03T07:52:56;2.45;;;2.22;;
58384;SDS011;44185;47.844;8.966;2023-04-03T07:55:22;4.28;;;2.75;;
58384;SDS011;44185;47.844;8.966;2023-04-03T07:57:47;3.80;;;2.55;;
58384;SDS011;44185;47.844;8.966;2023-04-03T08:00:13;2.88;;;2.50;;
58384;SDS011;44185;47.844;8.966;2023-04-03T08:02:39;4.75;;;2.83;;
58384;SDS011;44185;47.844;8.966;2023-04-03T08:05:06;3.47;;;2.30;;
58384;SDS011;44185;47.844;8.966;2023-04-03T08:07:32;4.43;;;2.40;;
58384;SDS011;44185;47.844;8.966;2023-04-03T08:09:58;4.85;;;2.80;;
58384;SDS011;44185;47.844;8.966;2023-04-03T08:12:23;4.13;;;2.90;;
58384;SDS011;44185;47.844;8.966;2023-04-03T08:14:49;4.63;;;3.17;;
58384;SDS011;44185;47.844;8.966;2023-04-03T08:17:14;4.93;;;2.63;;
58384;SDS011;44185;47.844;8.966;2023-04-03T08:19:39;5.03;;;2.63;;
58384;SDS011;44185;47.844;8.966;2023-04-03T08:22:07;3.63;;;2.78;;
58384;SDS011;44185;47.844;8.966;2023-04-03T08:24:32;4.68;;;3.13;;
58384;SDS011;44185;47.844;8.966;2023-04-03T08:26:57;2.35;;;2.25;;
58384;SDS011;44185;47.844;8.966;2023-04-03T08:29:23;2.53;;;1.95;;
58384;SDS011;44185;47.844;8.966;2023-04-03T08:31:49;2.55;;;2.35;;
58384;SDS011;44185;47.844;8.966;2023-04-03T08:34:15;3.00;;;2.60;;
58384;SDS011;44185;47.844;8.966;2023-04-03T08:36:41;3.85;;;3.08;;
58384;SDS011;44185;47.844;8.966;2023-04-03T08:39:09;4.90;;;3.10;;
58384;SDS011;44185;47.844;8.966;2023-04-03T08:41:35;4.93;;;3.08;;
58384;SDS011;44185;47.844;8.966;2023-04-03T08:44:03;3.45;;;2.75;;
58384;SDS011;44185;47.844;8.966;2023-04-03T08:46:42;4.78;;;2.63;;
58384;SDS011;44185;47.844;8.966;2023-04-03T08:49:19;5.68;;;3.20;;
58384;SDS011;44185;47.844;8.966;2023-04-03T08:51:49;3.13;;;2.33;;
58384;SDS011;44185;47.844;8.966;2023-04-03T08:54:20;6.00;;;3.15;;
58384;SDS011;44185;47.844;8.966;2023-04-03T08:56:50;6.03;;;3.10;;
58384;SDS011;44185;47.844;8.966;2023-04-03T08:59:17;3.75;;;2.83;;
58384;SDS011;44185;47.844;8.966;2023-04-03T09:01:49;3.08;;;2.40;;
58384;SDS011;44185;47.844;8.966;2023-04-03T09:04:15;4.75;;;3.25;;
58384;SDS011;44185;47.844;8.966;2023-04-03T09:06:42;4.43;;;2.58;;
58384;SDS011;44185;47.844;8.966;2023-04-03T09:09:12;6.00;;;3.67;;
58384;SDS011;44185;47.844;8.966;2023-04-03T09:11:44;4.77;;;2.40;;
58384;SDS011;44185;47.844;8.966;2023-04-03T09:14:16;4.72;;;2.90;;
58384;SDS011;44185;47.844;8.966;2023-04-03T09:16:48;2.83;;;2.58;;
58384;SDS011;44185;47.844;8.966;2023-04-03T09:19:20;6.05;;;3.70;;
58384;SDS011;44185;47.844;8.966;2023-04-03T09:21:53;3.47;;;2.22;;
58384;SDS011;44185;47.844;8.966;2023-04-03T09:24:21;4.20;;;2.70;;
58384;SDS011;44185;47.844;8.966;2023-04-03T09:26:51;4.78;;;3.00;;
58384;SDS011;44185;47.844;8.966;2023-04-03T09:29:21;3.70;;;2.80;;
58384;SDS011;44185;47.844;8.966;2023-04-03T09:31:49;5.13;;;2.90;;
58384;SDS011;44185;47.844;8.966;2023-04-03T09:34:17;5.20;;;3.22;;
58384;SDS011;44185;47.844;8.966;2023-04-03T09:36:47;5.10;;;2.60;;
58384;SDS011;44185;47.844;8.966;2023-04-03T09:39:15;6.65;;;3.05;;
58384;SDS011;44185;47.844;8.966;2023-04-03T09:41:42;3.20;;;2.63;;
58384;SDS011;44185;47.844;8.966;2023-04-03T09:44:24;4.78;;;2.95;;
58384;SDS011;44185;47.844;8.966;2023-04-03T09:46:51;4.50;;;2.40;;
58384;SDS011;44185;47.844;8.966;2023-04-03T09:49:17;5.07;;;2.60;;
58384;SDS011;44185;47.844;8.966;2023-04-03T09:51:43;2.55;;;2.35;;
58384;SDS011;44185;47.844;8.966;2023-04-03T09:54:24;4.55;;;3.13;;
58384;SDS011;44185;47.844;8.966;2023-04-03T09:57:01;3.72;;;2.72;;
58384;SDS011;44185;47.844;8.966;2023-04-03T09:59:32;3.08;;;2.40;;
58384;SDS011;44185;47.844;8.966;2023-04-03T10:01:58;3.50;;;2.63;;
58384;SDS011;44185;47.844;8.966;2023-04-03T10:04:25;4.03;;;2.70;;
58384;SDS011;44185;47.844;8.966;2023-04-03T10:07:03;4.38;;;2.85;;
58384;SDS011;44185;47.844;8.966;2023-04-03T10:09:29;4.80;;;2.80;;
58384;SDS011;44185;47.844;8.966;2023-04-03T10:12:00;3.38;;;2.67;;
58384;SDS011;44185;47.844;8.966;2023-04-03T10:14:28;5.55;;;3.63;;
58384;SDS011;44185;47.844;8.966;2023-04-03T10:16:56;3.80;;;3.20;;
58384;SDS011;44185;47.844;8.966;2023-04-03T10:19:34;4.20;;;3.00;;
58384;SDS011;44185;47.844;8.966;2023-04-03T10:22:08;3.55;;;2.85;;
58384;SDS011;44185;47.844;8.966;2023-04-03T10:24:44;3.15;;;2.80;;
58384;SDS011;44185;47.844;8.966;2023-04-03T10:27:17;3.15;;;2.85;;
58384;SDS011;44185;47.844;8.966;2023-04-03T10:29:50;4.28;;;2.72;;
58384;SDS011;44185;47.844;8.966;2023-04-03T10:32:29;3.75;;;2.70;;
58384;SDS011;44185;47.844;8.966;2023-04-03T10:35:12;6.88;;;4.03;;
58384;SDS011;44185;47.844;8.966;2023-04-03T10:37:49;4.20;;;3.05;;
58384;SDS011;44185;47.844;8.966;2023-04-03T10:40:29;4.00;;;2.75;;
58384;SDS011;44185;47.844;8.966;2023-04-03T10:43:02;3.83;;;2.70;;
58384;SDS011;44185;47.844;8.966;2023-04-03T10:45:31;4.63;;;2.72;;
58384;SDS011;44185;47.844;8.966;2023-04-03T10:48:14;3.85;;;2.53;;
58384;SDS011;44185;47.844;8.966;2023-04-03T10:50:51;4.05;;;2.97;;
58384;SDS011;44185;47.844;8.966;2023-04-03T10:53:24;4.63;;;2.78;;
58384;SDS011;44185;47.844;8.966;2023-04-03T10:55:57;5.97;;;3.20;;
58384;SDS011;44185;47.844;8.966;2023-04-03T10:58:30;4.30;;;3.15;;
58384;SDS011;44185;47.844;8.966;2023-04-03T11:00:59;6.75;;;3.72;;
58384;SDS011;44185;47.844;8.966;2023-04-03T11:03:31;3.03;;;2.38;;
58384;SDS011;44185;47.844;8.966;2023-04-03T11:06:01;4.57;;;3.10;;
58384;SDS011;44185;47.844;8.966;2023-04-03T11:08:32;6.93;;;3.17;;
58384;SDS011;44185;47.844;8.966;2023-04-03T11:11:00;6.95;;;3.20;;
58384;SDS011;44185;47.844;8.966;2023-04-03T11:13:31;3.35;;;2.72;;
58384;SDS011;44185;47.844;8.966;2023-04-03T11:15:59;4.72;;;3.30;;
58384;SDS011;44185;47.844;8.966;2023-04-03T11:18:25;2.90;;;2.15;;
58384;SDS011;44185;47.844;8.966;2023-04-03T11:21:00;4.15;;;3.15;;
58384;SDS011;44185;47.844;8.966;2023-04-03T11:23:30;3.15;;;2.75;;
58384;SDS011;44185;47.844;8.966;2023-04-03T11:26:05;5.05;;;2.38;;
58384;SDS011;44185;47.844;8.966;2023-04-03T11:28:34;6.50;;;2.80;;
58384;SDS011;44185;47.844;8.966;2023-04-03T11:31:02;6.78;;;3.28;;
58384;SDS011;44185;47.844;8.966;2023-04-03T11:33:40;4.18;;;2.33;;
58384;SDS011;44185;47.844;8.966;2023-04-03T11:36:18;3.53;;;2.60;;
58384;SDS011;44185;47.844;8.966;2023-04-03T11:38:46;5.80;;;3.25;;
58384;SDS011;44185;47.844;8.966;2023-04-03T11:41:16;6.57;;;3.22;;
58384;SDS011;44185;47.844;8.966;2023-04-03T11:43:55;3.67;;;2.90;;
58384;SDS011;44185;47.844;8.966;2023-04-03T11:46:22;5.05;;;3.20;;
58384;SDS011;44185;47.844;8.966;2023-04-03T11:52:14;6.50;;;3.45;;
58384;SDS011;44185;47.844;8.966;2023-04-03T11:58:17;4.60;;;2.78;;
58384;SDS011;44185;47.844;8.966;2023-04-03T12:00:56;2.30;;;2.10;;
58384;SDS011;44185;47.844;8.966;2023-04-03T12:09:33;4.72;;;2.85;;
58384;SDS011;44185;47.844;8.966;2023-04-03T12:12:36;3.55;;;2.00;;
58384;SDS011;44185;47.844;8.966;2023-04-03T12:15:21;3.97;;;2.45;;
58384;SDS011;44185;47.844;8.966;2023-04-03T12:21:05;3.20;;;1.98;;
58384;SDS011;44185;47.844;8.966;2023-04-03T12:23:31;2.35;;;1.88;;
58384;SDS011;44185;47.844;8.966;2023-04-03T12:26:06;5.18;;;2.92;;
58384;SDS011;44185;47.844;8.966;2023-04-03T12:28:47;3.03;;;2.67;;
58384;SDS011;44185;47.844;8.966;2023-04-03T12:31:15;4.07;;;2.97;;
58384;SDS011;44185;47.844;8.966;2023-04-03T12:33:49;3.65;;;2.60;;
58384;SDS011;44185;47.844;8.966;2023-04-03T12:36:33;3.60;;;2.30;;
58384;SDS011;44185;47.844;8.966;2023-04-03T12:39:18;2.90;;;2.40;;
58384;SDS011;44185;47.844;8.966;2023-04-03T12:41:56;5.35;;;2.70;;
58384;SDS011;44185;47.844;8.966;2023-04-03T12:44:38;3.83;;;2.65;;
58384;SDS011;44185;47.844;8.966;2023-04-03T12:47:16;13.53;;;3.23;;
58384;SDS011;44185;47.844;8.966;2023-04-03T12:49:48;5.47;;;3.05;;
58384;SDS011;44185;47.844;8.966;2023-04-03T12:52:17;3.83;;;2.90;;
58384;SDS011;44185;47.844;8.966;2023-04-03T12:54:47;5.22;;;2.90;;
58384;SDS011;44185;47.844;8.966;2023-04-03T12:57:16;3.58;;;2.50;;
58384;SDS011;44185;47.844;8.966;2023-04-03T12:59:45;3.08;;;2.75;;
58384;SDS011;44185;47.844;8.966;2023-04-03T13:02:15;3.40;;;2.55;;
58384;SDS011;44185;47.844;8.966;2023-04-03T13:04:46;3.63;;;2.67;;
58384;SDS011;44185;47.844;8.966;2023-04-03T13:07:18;2.92;;;1.67;;
58384;SDS011;44185;47.844;8.966;2023-04-03T13:09:47;4.47;;;2.80;;
58384;SDS011;44185;47.844;8.966;2023-04-03T13:12:20;2.13;;;1.90;;
58384;SDS011;44185;47.844;8.966;2023-04-03T13:14:52;6.85;;;3.28;;
58384;SDS011;44185;47.844;8.966;2023-04-03T13:17:20;4.93;;;3.10;;
58384;SDS011;44185;47.844;8.966;2023-04-03T13:19:46;3.97;;;2.33;;
58384;SDS011;44185;47.844;8.966;2023-04-03T13:22:15;3.97;;;2.78;;
58384;SDS011;44185;47.844;8.966;2023-04-03T13:24:51;5.97;;;2.50;;
58384;SDS011;44185;47.844;8.966;2023-04-03T13:27:19;3.00;;;2.63;;
58384;SDS011;44185;47.844;8.966;2023-04-03T13:29:48;4.07;;;3.00;;
58384;SDS011;44185;47.844;8.966;2023-04-03T13:32:17;4.50;;;2.55;;
58384;SDS011;44185;47.844;8.966;2023-04-03T13:34:45;3.00;;;2.70;;
58384;SDS011;44185;47.844;8.966;2023-04-03T13:37:19;3.25;;;2.70;;
58384;SDS011;44185;47.844;8.966;2023-04-03T13:39:45;5.63;;;2.30;;
58384;SDS011;44185;47.844;8.966;2023-04-03T13:42:23;2.58;;;2.22;;
58384;SDS011;44185;47.844;8.966;2023-04-03T13:47:46;4.88;;;2.75;;
58384;SDS011;44185;47.844;8.966;2023-04-03T13:50:14;2.33;;;1.88;;
58384;SDS011;44185;47.844;8.966;2023-04-03T13:52:42;3.08;;;2.75;;
58384;SDS011;44185;47.844;8.966;2023-04-03T13:55:17;4.22;;;2.50;;
58384;SDS011;44185;47.844;8.966;2023-04-03T13:57:51;2.78;;;2.28;;
58384;SDS011;44185;47.844;8.966;2023-04-03T14:00:27;2.53;;;2.33;;
58384;SDS011;44185;47.844;8.966;2023-04-03T14:02:56;3.10;;;2.17;;
58384;SDS011;44185;47.844;8.966;2023-04-03T14:05:22;2.90;;;2.30;;
58384;SDS011;44185;47.844;8.966;2023-04-03T14:07:48;4.47;;;2.55;;
58384;SDS011;44185;47.844;8.966;2023-04-03T14:10:14;5.97;;;3.03;;
58384;SDS011;44185;47.844;8.966;2023-04-03T14:12:39;2.53;;;2.20;;
58384;SDS011;44185;47.844;8.966;2023-04-03T14:15:07;3.20;;;2.67;;
58384;SDS011;44185;47.844;8.966;2023-04-03T14:17:41;2.13;;;1.92;;
58384;SDS011;44185;47.844;8.966;2023-04-03T14:20:10;4.60;;;4.07;;
58384;SDS011;44185;47.844;8.966;2023-04-03T14:22:39;4.05;;;2.97;;
58384;SDS011;44185;47.844;8.966;2023-04-03T14:25:05;4.45;;;2.75;;
58384;SDS011;44185;47.844;8.966;2023-04-03T14:27:33;2.35;;;2.15;;
58384;SDS011;44185;47.844;8.966;2023-04-03T14:30:00;4.30;;;2.97;;
58384;SDS011;44185;47.844;8.966;2023-04-03T14:32:26;3.13;;;2.58;;
58384;SDS011;44185;47.844;8.966;2023-04-03T14:34:52;3.13;;;2.75;;
58384;SDS011;44185;47.844;8.966;2023-04-03T14:37:19;3.65;;;2.25;;
58384;SDS011;44185;47.844;8.966;2023-04-03T14:39:46;2.63;;;2.20;;
58384;SDS011;44185;47.844;8.966;2023-04-03T14:42:12;5.15;;;3.00;;
58384;SDS011;44185;47.844;8.966;2023-04-03T14:44:40;3.42;;;2.58;;
58384;SDS011;44185;47.844;8.966;2023-04-03T14:47:08;4.25;;;2.50;;
58384;SDS011;44185;47.844;8.966;2023-04-03T14:49:35;3.10;;;2.20;;
58384;SDS011;44185;47.844;8.966;2023-04-03T14:52:01;3.63;;;2.55;;
58384;SDS011;44185;47.844;8.966;2023-04-03T14:54:27;3.28;;;2.50;;
58384;SDS011;44185;47.844;8.966;2023-04-03T14:56:54;3.35;;;2.28;;
58384;SDS011;44185;47.844;8.966;2023-04-03T14:59:20;3.45;;;2.40;;
58384;SDS011;44185;47.844;8.966;2023-04-03T15:01:46;2.67;;;1.83;;
58384;SDS011;44185;47.844;8.966;2023-04-03T15:04:12;2.72;;;2.53;;
58384;SDS011;44185;47.844;8.966;2023-04-03T15:06:38;4.93;;;3.13;;
58384;SDS011;44185;47.844;8.966;2023-04-03T15:09:04;4.55;;;2.22;;
58384;SDS011;44185;47.844;8.966;2023-04-03T15:11:31;5.30;;;2.80;;